sensor_id;sensor_type;location;lat;lon;timestamp;P1;durP1;ratioP1;P2;durP2;ratioP2
56130;SDS011;42000;44.774;20.506;2022-11-09T06:25:21;57.83;;;30.88;;
56130;SDS011;42000;44.774;20.506;2022-11-09T06:27:47;50.47;;;26.85;;
56130;SDS011;42000;44.774;20.506;2022-11-09T06:30:13;48.83;;;26.75;;
56130;SDS011;42000;44.774;20.506;2022-11-09T06:32:40;49.88;;;26.20;;
56130;SDS011;42000;44.774;20.506;2022-11-09T06:35:11;47.88;;;24.73;;
56130;SDS011;42000;44.774;20.506;2022-11-09T06:37:37;49.67;;;24.55;;
56130;SDS011;42000;44.774;20.506;2022-11-09T06:40:04;46.83;;;25.08;;
56130;SDS011;42000;44.774;20.506;2022-11-09T06:42:31;49.63;;;24.90;;
56130;SDS011;42000;44.774;20.506;2022-11-09T06:44:57;43.97;;;24.50;;
56130;SDS011;42000;44.774;20.506;2022-11-09T06:47:23;47.60;;;24.08;;
56130;SDS011;42000;44.774;20.506;2022-11-09T06:49:49;51.83;;;24.80;;
56130;SDS011;42000;44.774;20.506;2022-11-09T06:52:15;47.97;;;25.13;;
56130;SDS011;42000;44.774;20.506;2022-11-09T06:54:41;50.13;;;25.90;;
56130;SDS011;42000;44.774;20.506;2022-11-09T06:57:07;45.75;;;22.98;;
56130;SDS011;42000;44.774;20.506;2022-11-09T06:59:33;47.95;;;24.98;;
56130;SDS011;42000;44.774;20.506;2022-11-09T07:01:59;46.13;;;24.33;;
56130;SDS011;42000;44.774;20.506;2022-11-09T07:04:25;43.53;;;23.10;;
56130;SDS011;42000;44.774;20.506;2022-11-09T07:06:51;44.90;;;22.67;;
56130;SDS011;42000;44.774;20.506;2022-11-09T07:09:17;46.15;;;24.08;;
56130;SDS011;42000;44.774;20.506;2022-11-09T07:11:43;42.88;;;23.73;;
56130;SDS011;42000;44.774;20.506;2022-11-09T07:14:09;43.08;;;23.58;;
56130;SDS011;42000;44.774;20.506;2022-11-09T07:16:35;53.53;;;26.08;;
56130;SDS011;42000;44.774;20.506;2022-11-09T07:19:01;45.40;;;24.60;;
56130;SDS011;42000;44.774;20.506;2022-11-09T07:21:27;40.33;;;21.70;;
56130;SDS011;42000;44.774;20.506;2022-11-09T07:23:53;48.03;;;23.88;;
56130;SDS011;42000;44.774;20.506;2022-11-09T07:26:19;44.17;;;22.60;;
56130;SDS011;42000;44.774;20.506;2022-11-09T07:28:45;42.40;;;22.27;;
56130;SDS011;42000;44.774;20.506;2022-11-09T07:31:11;41.45;;;21.83;;
56130;SDS011;42000;44.774;20.506;2022-11-09T07:33:37;40.25;;;21.58;;
56130;SDS011;42000;44.774;20.506;2022-11-09T07:36:04;39.33;;;21.08;;
56130;SDS011;42000;44.774;20.506;2022-11-09T07:38:30;41.20;;;21.55;;
56130;SDS011;42000;44.774;20.506;2022-11-09T07:40:57;38.33;;;21.88;;
56130;SDS011;42000;44.774;20.506;2022-11-09T07:43:24;42.70;;;22.02;;
56130;SDS011;42000;44.774;20.506;2022-11-09T07:45:50;40.10;;;21.92;;
56130;SDS011;42000;44.774;20.506;2022-11-09T07:48:16;42.65;;;21.98;;
56130;SDS011;42000;44.774;20.506;2022-11-09T07:50:42;43.45;;;22.38;;
56130;SDS011;42000;44.774;20.506;2022-11-09T07:53:12;37.90;;;20.98;;
56130;SDS011;42000;44.774;20.506;2022-11-09T07:55:38;40.45;;;20.98;;
56130;SDS011;42000;44.774;20.506;2022-11-09T07:58:06;38.97;;;21.58;;
56130;SDS011;42000;44.774;20.506;2022-11-09T08:00:33;35.17;;;20.10;;
56130;SDS011;42000;44.774;20.506;2022-11-09T08:03:00;44.63;;;21.58;;
56130;SDS011;42000;44.774;20.506;2022-11-09T08:05:26;37.72;;;21.27;;
56130;SDS011;42000;44.774;20.506;2022-11-09T08:07:58;40.30;;;21.33;;
56130;SDS011;42000;44.774;20.506;2022-11-09T08:10:25;38.28;;;20.17;;
56130;SDS011;42000;44.774;20.506;2022-11-09T08:12:55;36.35;;;20.33;;
56130;SDS011;42000;44.774;20.506;2022-11-09T08:15:21;38.55;;;20.02;;
56130;SDS011;42000;44.774;20.506;2022-11-09T08:17:47;37.83;;;20.52;;
56130;SDS011;42000;44.774;20.506;2022-11-09T08:20:14;37.80;;;20.67;;
56130;SDS011;42000;44.774;20.506;2022-11-09T08:22:43;38.92;;;21.15;;
56130;SDS011;42000;44.774;20.506;2022-11-09T08:25:09;39.20;;;21.27;;
56130;SDS011;42000;44.774;20.506;2022-11-09T08:27:36;37.30;;;20.77;;
56130;SDS011;42000;44.774;20.506;2022-11-09T08:30:04;36.05;;;20.75;;
56130;SDS011;42000;44.774;20.506;2022-11-09T08:32:30;37.60;;;20.77;;
56130;SDS011;42000;44.774;20.506;2022-11-09T08:34:56;37.25;;;21.00;;
56130;SDS011;42000;44.774;20.506;2022-11-09T08:37:22;36.95;;;20.83;;
56130;SDS011;42000;44.774;20.506;2022-11-09T08:39:48;38.60;;;20.98;;
56130;SDS011;42000;44.774;20.506;2022-11-09T08:42:14;39.08;;;21.15;;
56130;SDS011;42000;44.774;20.506;2022-11-09T08:44:40;41.58;;;21.55;;
56130;SDS011;42000;44.774;20.506;2022-11-09T08:47:06;36.88;;;20.10;;
56130;SDS011;42000;44.774;20.506;2022-11-09T08:49:32;37.05;;;21.23;;
56130;SDS011;42000;44.774;20.506;2022-11-09T08:51:59;35.47;;;19.70;;
56130;SDS011;42000;44.774;20.506;2022-11-09T08:54:25;38.35;;;21.27;;
56130;SDS011;42000;44.774;20.506;2022-11-09T08:56:53;32.90;;;19.80;;
56130;SDS011;42000;44.774;20.506;2022-11-09T08:59:20;34.90;;;19.83;;
56130;SDS011;42000;44.774;20.506;2022-11-09T09:01:46;38.35;;;20.35;;
56130;SDS011;42000;44.774;20.506;2022-11-09T09:04:12;36.25;;;20.27;;
56130;SDS011;42000;44.774;20.506;2022-11-09T09:06:38;30.70;;;18.17;;
56130;SDS011;42000;44.774;20.506;2022-11-09T09:09:04;34.78;;;18.92;;
56130;SDS011;42000;44.774;20.506;2022-11-09T09:11:30;32.63;;;19.13;;
56130;SDS011;42000;44.774;20.506;2022-11-09T09:13:56;31.77;;;19.17;;
56130;SDS011;42000;44.774;20.506;2022-11-09T09:16:22;32.47;;;19.83;;
56130;SDS011;42000;44.774;20.506;2022-11-09T09:18:48;35.42;;;19.45;;
56130;SDS011;42000;44.774;20.506;2022-11-09T09:21:14;35.08;;;18.98;;
56130;SDS011;42000;44.774;20.506;2022-11-09T09:23:40;33.42;;;19.45;;
56130;SDS011;42000;44.774;20.506;2022-11-09T09:26:06;31.85;;;19.15;;
56130;SDS011;42000;44.774;20.506;2022-11-09T09:28:33;32.67;;;18.10;;
56130;SDS011;42000;44.774;20.506;2022-11-09T09:30:59;39.60;;;20.25;;
56130;SDS011;42000;44.774;20.506;2022-11-09T09:33:26;36.80;;;20.33;;
56130;SDS011;42000;44.774;20.506;2022-11-09T09:35:55;33.20;;;18.40;;
56130;SDS011;42000;44.774;20.506;2022-11-09T09:38:21;32.40;;;18.02;;
56130;SDS011;42000;44.774;20.506;2022-11-09T09:40:55;33.08;;;18.55;;
56130;SDS011;42000;44.774;20.506;2022-11-09T09:43:40;32.72;;;18.98;;
56130;SDS011;42000;44.774;20.506;2022-11-09T09:49:13;32.50;;;18.08;;
56130;SDS011;42000;44.774;20.506;2022-11-09T09:51:41;28.08;;;17.10;;
56130;SDS011;42000;44.774;20.506;2022-11-09T09:54:11;31.08;;;17.13;;
56130;SDS011;42000;44.774;20.506;2022-11-09T09:56:40;29.60;;;16.95;;
56130;SDS011;42000;44.774;20.506;2022-11-09T10:01:46;27.42;;;16.67;;
56130;SDS011;42000;44.774;20.506;2022-11-09T10:04:22;33.83;;;17.33;;
56130;SDS011;42000;44.774;20.506;2022-11-09T10:06:55;29.45;;;16.45;;
56130;SDS011;42000;44.774;20.506;2022-11-09T10:12:04;24.90;;;15.93;;
56130;SDS011;42000;44.774;20.506;2022-11-09T10:22:58;28.15;;;16.45;;
56130;SDS011;42000;44.774;20.506;2022-11-09T10:25:28;26.80;;;15.68;;
56130;SDS011;42000;44.774;20.506;2022-11-09T10:30:23;27.95;;;15.02;;
56130;SDS011;42000;44.774;20.506;2022-11-09T10:32:50;24.33;;;14.15;;
56130;SDS011;42000;44.774;20.506;2022-11-09T10:35:29;23.95;;;12.48;;
56130;SDS011;42000;44.774;20.506;2022-11-09T10:37:55;21.63;;;12.40;;
56130;SDS011;42000;44.774;20.506;2022-11-09T10:40:36;21.65;;;13.15;;
56130;SDS011;42000;44.774;20.506;2022-11-09T10:43:07;20.00;;;12.20;;
56130;SDS011;42000;44.774;20.506;2022-11-09T10:45:35;18.10;;;11.63;;
56130;SDS011;42000;44.774;20.506;2022-11-09T10:48:01;21.10;;;12.68;;
56130;SDS011;42000;44.774;20.506;2022-11-09T10:53:06;25.42;;;13.40;;
56130;SDS011;42000;44.774;20.506;2022-11-09T10:55:32;22.75;;;13.35;;
56130;SDS011;42000;44.774;20.506;2022-11-09T10:58:09;25.92;;;14.43;;
56130;SDS011;42000;44.774;20.506;2022-11-09T11:00:37;29.13;;;14.55;;
56130;SDS011;42000;44.774;20.506;2022-11-09T11:03:19;16.15;;;10.30;;
56130;SDS011;42000;44.774;20.506;2022-11-09T11:05:58;24.05;;;14.70;;
56130;SDS011;42000;44.774;20.506;2022-11-09T11:08:29;26.05;;;13.77;;
56130;SDS011;42000;44.774;20.506;2022-11-09T11:11:05;17.80;;;12.00;;
56130;SDS011;42000;44.774;20.506;2022-11-09T11:13:32;19.58;;;12.57;;
56130;SDS011;42000;44.774;20.506;2022-11-09T11:15:58;20.90;;;13.95;;
56130;SDS011;42000;44.774;20.506;2022-11-09T11:18:24;22.17;;;13.75;;
56130;SDS011;42000;44.774;20.506;2022-11-09T11:21:03;18.85;;;11.98;;
56130;SDS011;42000;44.774;20.506;2022-11-09T11:23:30;19.42;;;12.57;;
56130;SDS011;42000;44.774;20.506;2022-11-09T11:28:47;24.02;;;15.20;;
56130;SDS011;42000;44.774;20.506;2022-11-09T11:31:15;27.33;;;14.00;;
56130;SDS011;42000;44.774;20.506;2022-11-09T11:33:41;23.55;;;14.20;;
56130;SDS011;42000;44.774;20.506;2022-11-09T11:36:14;21.95;;;12.75;;
56130;SDS011;42000;44.774;20.506;2022-11-09T11:46:45;21.10;;;12.90;;
56130;SDS011;42000;44.774;20.506;2022-11-09T11:54:37;24.08;;;14.05;;
56130;SDS011;42000;44.774;20.506;2022-11-09T12:25:35;21.42;;;12.30;;
56130;SDS011;42000;44.774;20.506;2022-11-09T12:30:51;20.90;;;11.45;;
56130;SDS011;42000;44.774;20.506;2022-11-09T12:33:20;18.77;;;11.82;;
56130;SDS011;42000;44.774;20.506;2022-11-09T12:36:00;18.67;;;11.20;;
56130;SDS011;42000;44.774;20.506;2022-11-09T12:38:34;16.23;;;10.70;;
56130;SDS011;42000;44.774;20.506;2022-11-09T12:41:07;14.55;;;8.27;;
56130;SDS011;42000;44.774;20.506;2022-11-09T12:46:03;22.60;;;13.57;;
56130;SDS011;42000;44.774;20.506;2022-11-09T12:48:32;23.55;;;14.02;;
56130;SDS011;42000;44.774;20.506;2022-11-09T12:50:59;22.88;;;13.10;;
56130;SDS011;42000;44.774;20.506;2022-11-09T12:53:27;19.60;;;12.95;;
56130;SDS011;42000;44.774;20.506;2022-11-09T12:55:57;23.55;;;12.75;;
56130;SDS011;42000;44.774;20.506;2022-11-09T12:58:28;20.95;;;11.75;;
56130;SDS011;42000;44.774;20.506;2022-11-09T13:00:58;23.55;;;13.23;;
56130;SDS011;42000;44.774;20.506;2022-11-09T13:06:08;26.63;;;13.70;;
56130;SDS011;42000;44.774;20.506;2022-11-09T13:08:34;23.27;;;13.30;;
56130;SDS011;42000;44.774;20.506;2022-11-09T13:11:17;26.70;;;14.70;;
56130;SDS011;42000;44.774;20.506;2022-11-09T13:13:44;23.98;;;13.70;;
56130;SDS011;42000;44.774;20.506;2022-11-09T13:18:46;22.13;;;14.13;;
56130;SDS011;42000;44.774;20.506;2022-11-09T13:26:23;22.30;;;13.73;;
56130;SDS011;42000;44.774;20.506;2022-11-09T13:39:48;23.90;;;15.10;;
56130;SDS011;42000;44.774;20.506;2022-11-09T13:42:22;24.85;;;14.43;;
56130;SDS011;42000;44.774;20.506;2022-11-09T13:44:49;25.15;;;14.70;;
56130;SDS011;42000;44.774;20.506;2022-11-09T13:47:31;23.05;;;15.38;;
56130;SDS011;42000;44.774;20.506;2022-11-09T13:49:58;25.70;;;14.25;;
56130;SDS011;42000;44.774;20.506;2022-11-09T13:55:24;23.67;;;14.65;;
56130;SDS011;42000;44.774;20.506;2022-11-09T13:57:51;25.27;;;15.43;;
56130;SDS011;42000;44.774;20.506;2022-11-09T14:00:19;24.30;;;15.70;;
56130;SDS011;42000;44.774;20.506;2022-11-09T14:05:33;24.10;;;15.57;;
56130;SDS011;42000;44.774;20.506;2022-11-09T14:08:02;30.58;;;15.70;;
56130;SDS011;42000;44.774;20.506;2022-11-09T14:16:09;29.27;;;16.95;;
56130;SDS011;42000;44.774;20.506;2022-11-09T14:23:40;31.52;;;18.88;;
56130;SDS011;42000;44.774;20.506;2022-11-09T14:26:06;29.13;;;17.85;;
56130;SDS011;42000;44.774;20.506;2022-11-09T14:28:33;32.40;;;18.55;;
56130;SDS011;42000;44.774;20.506;2022-11-09T14:31:00;31.88;;;18.60;;
56130;SDS011;42000;44.774;20.506;2022-11-09T14:33:28;33.03;;;17.60;;
56130;SDS011;42000;44.774;20.506;2022-11-09T14:35:55;29.27;;;17.83;;
56130;SDS011;42000;44.774;20.506;2022-11-09T14:38:26;32.85;;;18.20;;
56130;SDS011;42000;44.774;20.506;2022-11-09T14:40:53;30.73;;;18.30;;
56130;SDS011;42000;44.774;20.506;2022-11-09T14:45:48;31.40;;;18.70;;
56130;SDS011;42000;44.774;20.506;2022-11-09T14:48:16;29.95;;;17.63;;
56130;SDS011;42000;44.774;20.506;2022-11-09T14:50:42;31.17;;;17.35;;
56130;SDS011;42000;44.774;20.506;2022-11-09T14:53:13;28.45;;;17.05;;
56130;SDS011;42000;44.774;20.506;2022-11-09T14:55:39;33.13;;;17.60;;
56130;SDS011;42000;44.774;20.506;2022-11-09T14:58:08;31.98;;;17.77;;
56130;SDS011;42000;44.774;20.506;2022-11-09T15:00:36;30.52;;;17.40;;
56130;SDS011;42000;44.774;20.506;2022-11-09T15:05:46;29.73;;;18.85;;
56130;SDS011;42000;44.774;20.506;2022-11-09T15:08:14;31.60;;;18.48;;
56130;SDS011;42000;44.774;20.506;2022-11-09T15:10:46;35.67;;;20.92;;
56130;SDS011;42000;44.774;20.506;2022-11-09T15:13:13;33.95;;;19.92;;
56130;SDS011;42000;44.774;20.506;2022-11-09T15:15:39;34.17;;;19.50;;
56130;SDS011;42000;44.774;20.506;2022-11-09T15:18:13;32.08;;;19.63;;
56130;SDS011;42000;44.774;20.506;2022-11-09T15:20:40;37.38;;;22.35;;
56130;SDS011;42000;44.774;20.506;2022-11-09T15:23:20;39.30;;;23.52;;
56130;SDS011;42000;44.774;20.506;2022-11-09T15:30:40;40.20;;;23.83;;
56130;SDS011;42000;44.774;20.506;2022-11-09T15:35:48;41.63;;;25.42;;
56130;SDS011;42000;44.774;20.506;2022-11-09T15:38:34;47.13;;;26.00;;
56130;SDS011;42000;44.774;20.506;2022-11-09T15:41:00;48.42;;;27.30;;
56130;SDS011;42000;44.774;20.506;2022-11-09T15:43:27;51.45;;;28.55;;
56130;SDS011;42000;44.774;20.506;2022-11-09T15:45:53;57.60;;;34.75;;
56130;SDS011;42000;44.774;20.506;2022-11-09T15:48:19;45.95;;;28.05;;
56130;SDS011;42000;44.774;20.506;2022-11-09T15:50:46;47.55;;;27.58;;
56130;SDS011;42000;44.774;20.506;2022-11-09T15:53:12;60.28;;;34.28;;
56130;SDS011;42000;44.774;20.506;2022-11-09T15:55:38;62.95;;;38.10;;
56130;SDS011;42000;44.774;20.506;2022-11-09T15:58:04;55.78;;;31.88;;
56130;SDS011;42000;44.774;20.506;2022-11-09T16:00:30;50.83;;;31.55;;
56130;SDS011;42000;44.774;20.506;2022-11-09T16:02:56;54.95;;;34.00;;
56130;SDS011;42000;44.774;20.506;2022-11-09T16:05:22;61.13;;;36.63;;
56130;SDS011;42000;44.774;20.506;2022-11-09T16:07:52;72.70;;;38.80;;
56130;SDS011;42000;44.774;20.506;2022-11-09T16:10:19;68.20;;;37.45;;
56130;SDS011;42000;44.774;20.506;2022-11-09T16:12:47;62.05;;;36.65;;
56130;SDS011;42000;44.774;20.506;2022-11-09T16:15:16;65.22;;;39.25;;
56130;SDS011;42000;44.774;20.506;2022-11-09T16:17:43;70.18;;;40.65;;
56130;SDS011;42000;44.774;20.506;2022-11-09T16:20:09;74.68;;;42.75;;
56130;SDS011;42000;44.774;20.506;2022-11-09T16:22:35;71.50;;;40.72;;
56130;SDS011;42000;44.774;20.506;2022-11-09T16:25:01;69.00;;;39.95;;
56130;SDS011;42000;44.774;20.506;2022-11-09T16:27:27;71.45;;;40.40;;
56130;SDS011;42000;44.774;20.506;2022-11-09T16:29:54;68.43;;;39.00;;
56130;SDS011;42000;44.774;20.506;2022-11-09T16:32:20;67.40;;;39.25;;
56130;SDS011;42000;44.774;20.506;2022-11-09T16:34:46;70.43;;;39.70;;
56130;SDS011;42000;44.774;20.506;2022-11-09T16:37:12;78.53;;;43.28;;
56130;SDS011;42000;44.774;20.506;2022-11-09T16:39:38;81.72;;;43.70;;
56130;SDS011;42000;44.774;20.506;2022-11-09T16:42:05;79.70;;;44.97;;
56130;SDS011;42000;44.774;20.506;2022-11-09T16:44:33;84.78;;;45.45;;
56130;SDS011;42000;44.774;20.506;2022-11-09T16:47:00;88.38;;;46.97;;
56130;SDS011;42000;44.774;20.506;2022-11-09T16:49:27;93.30;;;48.50;;
56130;SDS011;42000;44.774;20.506;2022-11-09T16:51:53;87.10;;;48.75;;
56130;SDS011;42000;44.774;20.506;2022-11-09T16:54:19;80.40;;;45.88;;
56130;SDS011;42000;44.774;20.506;2022-11-09T16:56:45;82.20;;;46.33;;
56130;SDS011;42000;44.774;20.506;2022-11-09T16:59:12;85.88;;;46.58;;
56130;SDS011;42000;44.774;20.506;2022-11-09T17:01:38;79.30;;;43.38;;
56130;SDS011;42000;44.774;20.506;2022-11-09T17:04:04;76.32;;;41.88;;
56130;SDS011;42000;44.774;20.506;2022-11-09T17:06:31;65.70;;;38.08;;
56130;SDS011;42000;44.774;20.506;2022-11-09T17:08:57;70.10;;;40.00;;
56130;SDS011;42000;44.774;20.506;2022-11-09T17:11:23;72.22;;;40.47;;
56130;SDS011;42000;44.774;20.506;2022-11-09T17:13:54;71.95;;;40.53;;
56130;SDS011;42000;44.774;20.506;2022-11-09T17:16:20;66.75;;;38.38;;
56130;SDS011;42000;44.774;20.506;2022-11-09T17:18:46;71.70;;;38.70;;
56130;SDS011;42000;44.774;20.506;2022-11-09T17:21:12;70.55;;;37.92;;
56130;SDS011;42000;44.774;20.506;2022-11-09T17:23:39;62.63;;;35.50;;
56130;SDS011;42000;44.774;20.506;2022-11-09T17:26:06;66.55;;;36.85;;
56130;SDS011;42000;44.774;20.506;2022-11-09T17:28:32;64.05;;;34.50;;
56130;SDS011;42000;44.774;20.506;2022-11-09T17:30:59;61.78;;;34.55;;
56130;SDS011;42000;44.774;20.506;2022-11-09T17:33:25;63.58;;;35.58;;
56130;SDS011;42000;44.774;20.506;2022-11-09T17:35:58;61.00;;;33.75;;
56130;SDS011;42000;44.774;20.506;2022-11-09T17:38:24;57.50;;;32.22;;
56130;SDS011;42000;44.774;20.506;2022-11-09T17:40:51;64.50;;;34.08;;
56130;SDS011;42000;44.774;20.506;2022-11-09T17:43:18;61.78;;;36.25;;
56130;SDS011;42000;44.774;20.506;2022-11-09T17:45:44;72.95;;;39.92;;
56130;SDS011;42000;44.774;20.506;2022-11-09T17:48:10;81.13;;;42.97;;
56130;SDS011;42000;44.774;20.506;2022-11-09T17:50:36;85.22;;;48.25;;
56130;SDS011;42000;44.774;20.506;2022-11-09T17:53:02;102.30;;;57.45;;
56130;SDS011;42000;44.774;20.506;2022-11-09T17:55:28;103.07;;;56.90;;
56130;SDS011;42000;44.774;20.506;2022-11-09T17:57:54;103.57;;;56.35;;
56130;SDS011;42000;44.774;20.506;2022-11-09T18:00:20;103.50;;;56.38;;
56130;SDS011;42000;44.774;20.506;2022-11-09T18:02:47;101.28;;;56.65;;
56130;SDS011;42000;44.774;20.506;2022-11-09T18:05:13;99.82;;;53.85;;
56130;SDS011;42000;44.774;20.506;2022-11-09T18:07:40;98.60;;;53.60;;
56130;SDS011;42000;44.774;20.506;2022-11-09T18:10:06;91.63;;;51.63;;
56130;SDS011;42000;44.774;20.506;2022-11-09T18:12:35;92.57;;;50.45;;
56130;SDS011;42000;44.774;20.506;2022-11-09T18:15:01;89.47;;;49.83;;
56130;SDS011;42000;44.774;20.506;2022-11-09T18:17:27;94.65;;;51.22;;
56130;SDS011;42000;44.774;20.506;2022-11-09T18:19:53;94.07;;;52.20;;
56130;SDS011;42000;44.774;20.506;2022-11-09T18:22:19;97.38;;;49.65;;
56130;SDS011;42000;44.774;20.506;2022-11-09T18:24:45;90.05;;;47.28;;
56130;SDS011;42000;44.774;20.506;2022-11-09T18:27:11;86.53;;;47.65;;
56130;SDS011;42000;44.774;20.506;2022-11-09T18:29:37;83.43;;;44.10;;
56130;SDS011;42000;44.774;20.506;2022-11-09T18:32:04;82.35;;;45.65;;
56130;SDS011;42000;44.774;20.506;2022-11-09T18:34:30;84.78;;;44.33;;
56130;SDS011;42000;44.774;20.506;2022-11-09T18:36:56;77.28;;;41.67;;
56130;SDS011;42000;44.774;20.506;2022-11-09T18:39:22;79.78;;;44.55;;
56130;SDS011;42000;44.774;20.506;2022-11-09T18:41:50;76.95;;;42.70;;
56130;SDS011;42000;44.774;20.506;2022-11-09T18:44:18;75.85;;;42.40;;
56130;SDS011;42000;44.774;20.506;2022-11-09T18:46:44;79.85;;;44.67;;
56130;SDS011;42000;44.774;20.506;2022-11-09T18:49:11;75.88;;;42.33;;
56130;SDS011;42000;44.774;20.506;2022-11-09T18:51:37;73.20;;;41.55;;
56130;SDS011;42000;44.774;20.506;2022-11-09T18:54:03;77.07;;;43.00;;
56130;SDS011;42000;44.774;20.506;2022-11-09T18:56:29;74.55;;;41.67;;
56130;SDS011;42000;44.774;20.506;2022-11-09T18:58:55;77.50;;;42.63;;
56130;SDS011;42000;44.774;20.506;2022-11-09T19:01:23;77.47;;;42.28;;
56130;SDS011;42000;44.774;20.506;2022-11-09T19:03:50;74.93;;;41.88;;
56130;SDS011;42000;44.774;20.506;2022-11-09T19:06:17;81.35;;;42.83;;
56130;SDS011;42000;44.774;20.506;2022-11-09T19:08:43;76.07;;;42.10;;
56130;SDS011;42000;44.774;20.506;2022-11-09T19:11:28;71.88;;;40.50;;
56130;SDS011;42000;44.774;20.506;2022-11-09T19:13:55;72.95;;;42.40;;
56130;SDS011;42000;44.774;20.506;2022-11-09T19:16:21;73.15;;;41.60;;
56130;SDS011;42000;44.774;20.506;2022-11-09T19:18:48;75.53;;;41.90;;
56130;SDS011;42000;44.774;20.506;2022-11-09T19:23:50;82.88;;;45.10;;
56130;SDS011;42000;44.774;20.506;2022-11-09T19:26:16;78.35;;;44.53;;
56130;SDS011;42000;44.774;20.506;2022-11-09T19:28:42;81.22;;;43.53;;
56130;SDS011;42000;44.774;20.506;2022-11-09T19:31:15;76.15;;;42.42;;
56130;SDS011;42000;44.774;20.506;2022-11-09T19:33:41;81.10;;;43.53;;
56130;SDS011;42000;44.774;20.506;2022-11-09T19:36:08;76.38;;;43.92;;
56130;SDS011;42000;44.774;20.506;2022-11-09T19:38:34;77.03;;;42.50;;
56130;SDS011;42000;44.774;20.506;2022-11-09T19:41:00;76.80;;;43.45;;
56130;SDS011;42000;44.774;20.506;2022-11-09T19:43:26;79.25;;;43.90;;
56130;SDS011;42000;44.774;20.506;2022-11-09T19:45:52;78.38;;;42.83;;
56130;SDS011;42000;44.774;20.506;2022-11-09T19:48:18;84.22;;;46.13;;
56130;SDS011;42000;44.774;20.506;2022-11-09T19:50:48;83.20;;;45.35;;
56130;SDS011;42000;44.774;20.506;2022-11-09T19:53:14;80.82;;;44.20;;
56130;SDS011;42000;44.774;20.506;2022-11-09T19:55:40;85.30;;;46.30;;
56130;SDS011;42000;44.774;20.506;2022-11-09T19:58:06;82.10;;;45.70;;
56130;SDS011;42000;44.774;20.506;2022-11-09T20:00:32;75.70;;;42.30;;
56130;SDS011;42000;44.774;20.506;2022-11-09T20:03:00;76.78;;;42.08;;
56130;SDS011;42000;44.774;20.506;2022-11-09T20:05:26;68.40;;;38.42;;
56130;SDS011;42000;44.774;20.506;2022-11-09T20:07:55;65.72;;;38.20;;
56130;SDS011;42000;44.774;20.506;2022-11-09T20:10:21;64.95;;;35.50;;
56130;SDS011;42000;44.774;20.506;2022-11-09T20:12:47;65.43;;;36.88;;
56130;SDS011;42000;44.774;20.506;2022-11-09T20:15:13;62.10;;;36.90;;
56130;SDS011;42000;44.774;20.506;2022-11-09T20:17:39;63.75;;;35.67;;
56130;SDS011;42000;44.774;20.506;2022-11-09T20:20:06;64.68;;;36.80;;
56130;SDS011;42000;44.774;20.506;2022-11-09T20:22:33;63.10;;;35.85;;
56130;SDS011;42000;44.774;20.506;2022-11-09T20:24:59;66.18;;;37.22;;
56130;SDS011;42000;44.774;20.506;2022-11-09T20:27:26;66.10;;;36.20;;
56130;SDS011;42000;44.774;20.506;2022-11-09T20:29:52;61.20;;;35.55;;
56130;SDS011;42000;44.774;20.506;2022-11-09T20:32:18;67.25;;;35.53;;
56130;SDS011;42000;44.774;20.506;2022-11-09T20:34:45;62.85;;;35.47;;
56130;SDS011;42000;44.774;20.506;2022-11-09T20:37:13;65.38;;;36.15;;
56130;SDS011;42000;44.774;20.506;2022-11-09T20:39:39;62.90;;;34.63;;
56130;SDS011;42000;44.774;20.506;2022-11-09T20:42:06;66.50;;;37.75;;
56130;SDS011;42000;44.774;20.506;2022-11-09T20:44:32;65.15;;;36.40;;
56130;SDS011;42000;44.774;20.506;2022-11-09T20:46:58;64.43;;;36.05;;
56130;SDS011;42000;44.774;20.506;2022-11-09T20:49:24;64.53;;;36.30;;
56130;SDS011;42000;44.774;20.506;2022-11-09T20:51:50;67.57;;;36.80;;
56130;SDS011;42000;44.774;20.506;2022-11-09T20:54:16;65.40;;;37.67;;
56130;SDS011;42000;44.774;20.506;2022-11-09T20:56:42;65.85;;;36.33;;
56130;SDS011;42000;44.774;20.506;2022-11-09T20:59:09;68.00;;;37.33;;
56130;SDS011;42000;44.774;20.506;2022-11-09T21:01:35;66.45;;;36.83;;
56130;SDS011;42000;44.774;20.506;2022-11-09T21:04:01;63.72;;;35.67;;
56130;SDS011;42000;44.774;20.506;2022-11-09T21:06:28;65.78;;;35.60;;
56130;SDS011;42000;44.774;20.506;2022-11-09T21:08:54;64.68;;;36.05;;
56130;SDS011;42000;44.774;20.506;2022-11-09T21:11:21;67.22;;;35.85;;
56130;SDS011;42000;44.774;20.506;2022-11-09T21:13:54;61.08;;;35.38;;
56130;SDS011;42000;44.774;20.506;2022-11-09T21:16:21;63.05;;;34.70;;
56130;SDS011;42000;44.774;20.506;2022-11-09T21:18:47;60.40;;;35.22;;
56130;SDS011;42000;44.774;20.506;2022-11-09T21:21:14;62.67;;;34.35;;
56130;SDS011;42000;44.774;20.506;2022-11-09T21:23:40;66.65;;;36.67;;
56130;SDS011;42000;44.774;20.506;2022-11-09T21:26:25;61.80;;;33.60;;
56130;SDS011;42000;44.774;20.506;2022-11-09T21:29:14;66.38;;;34.75;;
56130;SDS011;42000;44.774;20.506;2022-11-09T21:31:59;65.60;;;34.53;;
56130;SDS011;42000;44.774;20.506;2022-11-09T21:34:25;59.85;;;33.65;;
56130;SDS011;42000;44.774;20.506;2022-11-09T21:36:51;60.92;;;34.17;;
56130;SDS011;42000;44.774;20.506;2022-11-09T21:39:18;61.38;;;32.85;;
56130;SDS011;42000;44.774;20.506;2022-11-09T21:41:44;61.40;;;34.03;;
56130;SDS011;42000;44.774;20.506;2022-11-09T21:44:10;58.92;;;32.47;;
56130;SDS011;42000;44.774;20.506;2022-11-09T21:46:37;57.00;;;32.35;;
56130;SDS011;42000;44.774;20.506;2022-11-09T21:49:07;57.13;;;32.65;;
56130;SDS011;42000;44.774;20.506;2022-11-09T21:51:34;57.55;;;33.05;;
56130;SDS011;42000;44.774;20.506;2022-11-09T21:54:00;58.30;;;30.02;;
56130;SDS011;42000;44.774;20.506;2022-11-09T21:56:26;54.53;;;31.48;;
56130;SDS011;42000;44.774;20.506;2022-11-09T21:58:52;56.42;;;31.67;;
56130;SDS011;42000;44.774;20.506;2022-11-09T22:01:18;57.58;;;32.53;;
56130;SDS011;42000;44.774;20.506;2022-11-09T22:03:45;58.38;;;32.88;;
56130;SDS011;42000;44.774;20.506;2022-11-09T22:06:11;64.00;;;34.45;;
56130;SDS011;42000;44.774;20.506;2022-11-09T22:08:38;59.10;;;33.80;;
56130;SDS011;42000;44.774;20.506;2022-11-09T22:11:05;61.85;;;34.47;;
56130;SDS011;42000;44.774;20.506;2022-11-09T22:13:32;58.80;;;35.35;;
56130;SDS011;42000;44.774;20.506;2022-11-09T22:16:21;65.35;;;36.47;;
56130;SDS011;42000;44.774;20.506;2022-11-09T22:18:47;69.00;;;36.42;;
56130;SDS011;42000;44.774;20.506;2022-11-09T22:21:31;67.00;;;35.00;;
56130;SDS011;42000;44.774;20.506;2022-11-09T22:24:01;63.00;;;35.65;;
56130;SDS011;42000;44.774;20.506;2022-11-09T22:26:28;65.10;;;35.90;;
56130;SDS011;42000;44.774;20.506;2022-11-09T22:28:55;63.67;;;35.97;;
56130;SDS011;42000;44.774;20.506;2022-11-09T22:31:21;64.63;;;33.70;;
56130;SDS011;42000;44.774;20.506;2022-11-09T22:33:48;64.72;;;35.25;;
56130;SDS011;42000;44.774;20.506;2022-11-09T22:36:14;59.22;;;32.47;;
56130;SDS011;42000;44.774;20.506;2022-11-09T22:38:40;56.10;;;32.30;;
56130;SDS011;42000;44.774;20.506;2022-11-09T22:41:08;62.33;;;33.22;;